createdAt,value
2022-08-01T00:00:15.898Z,101664.98
2022-08-01T00:02:45.762Z,101667.37
2022-08-01T00:05:15.775Z,101670.16
2022-08-01T00:07:45.624Z,101667.95
2022-08-01T00:10:17.190Z,101666.91
2022-08-01T00:12:47.298Z,101668.88
2022-08-01T00:15:18.620Z,101669.00
2022-08-01T00:17:48.383Z,101673.42
2022-08-01T00:20:18.119Z,101675.92
2022-08-01T00:22:47.881Z,101670.51
2022-08-01T00:25:17.914Z,101673.85
2022-08-01T00:27:47.752Z,101672.04
2022-08-01T00:30:17.457Z,101675.61
2022-08-01T00:32:47.393Z,101677.48
2022-08-01T00:35:17.312Z,101680.14
2022-08-01T00:37:47.080Z,101679.17
2022-08-01T00:40:16.990Z,101679.89
2022-08-01T00:42:46.829Z,101672.41
2022-08-01T00:45:16.315Z,101671.91
2022-08-01T00:47:46.141Z,101679.62
2022-08-01T00:50:16.809Z,101679.34
2022-08-01T00:52:51.608Z,101678.22
2022-08-01T00:55:20.228Z,101681.36
2022-08-01T00:58:03.244Z,101681.45
2022-08-01T01:00:27.545Z,101688.84
2022-08-01T01:02:54.791Z,101689.62
2022-08-01T01:05:24.751Z,101688.48
2022-08-01T01:08:03.923Z,101688.99
2022-08-01T01:10:51.721Z,101665.17
2022-08-01T01:13:50.094Z,101665.17
2022-08-01T01:16:19.369Z,101691.06
2022-08-01T01:18:57.428Z,101691.06
2022-08-01T01:21:39.265Z,101685.55
2022-08-01T01:24:41.723Z,101687.87
2022-08-01T01:27:32.241Z,101681.91
2022-08-01T01:30:03.144Z,101686.55
2022-08-01T01:32:47.500Z,101686.94
2022-08-01T01:35:26.348Z,101689.94
2022-08-01T01:37:59.244Z,101691.27
2022-08-01T01:40:31.350Z,101691.61
2022-08-01T01:43:01.570Z,101687.49
2022-08-01T01:45:32.805Z,101686.39
2022-08-01T01:48:03.829Z,101684.31
2022-08-01T01:50:34.947Z,101679.69
2022-08-01T01:53:07.642Z,101685.50
2022-08-01T01:55:49.372Z,101685.50
2022-08-01T01:58:15.068Z,101678.59
2022-08-01T02:00:46.191Z,101682.17
2022-08-01T02:03:16.888Z,101684.69
2022-08-01T02:05:47.910Z,101693.04
2022-08-01T02:08:19.132Z,101690.23
2022-08-01T02:11:09.883Z,101686.62
2022-08-01T02:13:42.196Z,101686.27
2022-08-01T02:16:12.225Z,101684.30
2022-08-01T02:18:43.427Z,101680.36
2022-08-01T02:21:16.282Z,101680.36
2022-08-01T02:23:46.591Z,101681.84
2022-08-01T02:28:53.630Z,101677.11
2022-08-01T02:31:24.946Z,101676.27
2022-08-01T02:34:02.351Z,101677.20
2022-08-01T02:36:34.803Z,101682.17
2022-08-01T02:39:07.618Z,101686.88
2022-08-01T02:41:40.469Z,101687.87
2022-08-01T02:44:14.345Z,101691.49
2022-08-01T02:46:47.171Z,101689.27
2022-08-01T02:49:20.263Z,101689.81
2022-08-01T02:51:52.075Z,101686.39
2022-08-01T02:54:24.180Z,101686.60
2022-08-01T02:56:55.288Z,101694.66
2022-08-01T02:59:28.485Z,101697.33
2022-08-01T03:02:03.130Z,101693.14
2022-08-01T03:04:35.781Z,101693.42
2022-08-01T03:07:07.916Z,101695.02
2022-08-01T03:09:44.181Z,101678.55
2022-08-01T03:12:22.827Z,101678.55
2022-08-01T03:14:55.617Z,101698.70
2022-08-01T03:17:28.914Z,101697.47
2022-08-01T03:20:00.938Z,101691.80
2022-08-01T03:22:33.390Z,101692.05
2022-08-01T03:25:04.909Z,101695.09
2022-08-01T03:27:37.119Z,101697.94
2022-08-01T03:30:09.471Z,101693.91
2022-08-01T03:32:40.115Z,101694.08
2022-08-01T03:35:10.942Z,101694.08
2022-08-01T03:38:13.536Z,101687.84
2022-08-01T03:40:29.491Z,101700.17
2022-08-01T03:43:02.292Z,101699.37
2022-08-01T03:45:35.136Z,101701.30
2022-08-01T03:48:09.455Z,101695.78
2022-08-01T03:50:42.314Z,101679.84
2022-08-01T03:53:13.543Z,101679.84
2022-08-01T03:55:45.564Z,101702.23
2022-08-01T03:58:16.178Z,101689.28
2022-08-01T04:00:46.501Z,101702.95
2022-08-01T04:03:16.724Z,101708.06
2022-08-01T04:05:46.875Z,101706.80
2022-08-01T04:08:16.986Z,101708.81
2022-08-01T04:10:46.749Z,101696.14
2022-08-01T04:13:18.365Z,101701.75
2022-08-01T04:15:48.222Z,101683.53
2022-08-01T04:18:17.999Z,101702.81
2022-08-01T04:20:49.157Z,101704.11
2022-08-01T04:23:21.655Z,101696.02
2022-08-01T04:25:53.577Z,101700.55
2022-08-01T04:28:24.804Z,101707.42
2022-08-01T04:31:01.795Z,101710.98
2022-08-01T04:33:31.847Z,101710.23
2022-08-01T04:36:04.970Z,101709.40
2022-08-01T04:38:37.729Z,101710.41
2022-08-01T04:41:10.518Z,101712.38
2022-08-01T04:43:44.190Z,101717.33
2022-08-01T04:46:15.469Z,101727.78
2022-08-01T04:48:46.104Z,101728.44
2022-08-01T04:51:17.753Z,101729.69
2022-08-01T04:53:47.710Z,101736.45
2022-08-01T04:56:17.198Z,101743.21
2022-08-01T04:58:47.206Z,101744.28
2022-08-01T05:01:17.066Z,101752.23
2022-08-01T05:03:46.863Z,101748.93
2022-08-01T05:06:16.341Z,101738.36
2022-08-01T05:08:46.793Z,101744.23
2022-08-01T05:11:16.573Z,101749.35
2022-08-01T05:13:48.052Z,101738.05
2022-08-01T05:16:18.378Z,101738.05
2022-08-01T05:18:48.183Z,101754.89
2022-08-01T05:21:17.656Z,101755.22
2022-08-01T05:23:49.386Z,101752.37
2022-08-01T05:26:19.459Z,101757.58
2022-08-01T05:28:49.251Z,101757.33
2022-08-01T05:31:19.024Z,101755.65
2022-08-01T05:33:48.831Z,101748.21
2022-08-01T05:36:18.431Z,101747.38
2022-08-01T05:38:48.230Z,101754.81
2022-08-01T05:41:18.072Z,101754.38
2022-08-01T05:43:47.927Z,101755.97
2022-08-01T05:46:17.479Z,101763.95
2022-08-01T05:48:47.348Z,101763.29
2022-08-01T05:51:16.852Z,101766.16
2022-08-01T05:53:46.644Z,101745.36
2022-08-01T05:56:16.191Z,101745.36
2022-08-01T05:58:45.978Z,101762.97
2022-08-01T06:01:15.763Z,101763.02
2022-08-01T06:03:45.318Z,101769.59
2022-08-01T06:06:17.968Z,101762.51
2022-08-01T06:08:47.893Z,101769.73
2022-08-01T06:11:19.446Z,101771.33
2022-08-01T06:13:49.382Z,101763.92
2022-08-01T06:16:19.288Z,101768.12
2022-08-01T06:18:50.019Z,101772.67
2022-08-01T06:21:21.091Z,101760.70
2022-08-01T06:23:51.151Z,101770.00
2022-08-01T06:26:21.871Z,101746.05
2022-08-01T06:28:51.942Z,101746.05
2022-08-01T06:31:21.806Z,101764.50
2022-08-01T06:33:51.293Z,101766.10
2022-08-01T06:36:21.081Z,101763.72
2022-08-01T06:38:50.868Z,101764.27
2022-08-01T06:41:20.673Z,101754.41
2022-08-01T06:43:50.743Z,101754.41
2022-08-01T06:46:20.536Z,101774.77
2022-08-01T06:48:50.663Z,101775.29
2022-08-01T06:51:21.821Z,101773.81
2022-08-01T06:53:54.559Z,101780.89
2022-08-01T06:56:24.327Z,101781.16
2022-08-01T06:58:54.169Z,101780.30
2022-08-01T07:01:24.047Z,101787.09
2022-08-01T07:03:55.035Z,101784.07
2022-08-01T07:06:25.830Z,101783.84
2022-08-01T07:08:55.783Z,101783.97
2022-08-01T07:11:26.273Z,101786.67
2022-08-01T07:13:56.107Z,101790.47
2022-08-01T07:16:25.806Z,101782.97
2022-08-01T07:18:55.657Z,101777.66
2022-08-01T07:21:39.059Z,101777.66
2022-08-01T07:23:56.957Z,101797.28
2022-08-01T07:26:27.653Z,101793.52
2022-08-01T07:28:57.835Z,101788.31
2022-08-01T07:31:32.002Z,101792.33
2022-08-01T07:33:59.304Z,101801.52
2022-08-01T07:36:29.060Z,101809.63
2022-08-01T07:38:58.931Z,101788.41
2022-08-01T07:41:53.869Z,101788.41
2022-08-01T07:44:04.714Z,101808.31
2022-08-01T07:46:32.232Z,101813.39
2022-08-01T07:49:02.042Z,101815.54
2022-08-01T07:51:32.127Z,101820.77
2022-08-01T07:54:02.192Z,101818.90
2022-08-01T07:56:31.955Z,101819.35
2022-08-01T07:59:01.726Z,101826.25
2022-08-01T08:01:31.566Z,101826.06
2022-08-01T08:04:01.334Z,101825.08
2022-08-01T08:06:31.101Z,101827.96
2022-08-01T08:09:00.853Z,101829.52
2022-08-01T08:11:30.695Z,101824.16
2022-08-01T08:14:00.741Z,101827.18
2022-08-01T08:16:30.234Z,101834.88
2022-08-01T08:19:00.053Z,101834.88
2022-08-01T08:21:31.154Z,101842.04
2022-08-01T08:24:18.853Z,101836.09
2022-08-01T08:26:52.216Z,101842.96
2022-08-01T08:29:22.798Z,101845.45
2022-08-01T08:31:53.915Z,101849.63
2022-08-01T08:34:24.085Z,101845.80
2022-08-01T08:36:55.460Z,101844.34
2022-08-01T08:39:25.354Z,101841.45
2022-08-01T08:41:55.192Z,101837.34
2022-08-01T08:44:24.657Z,101836.20
2022-08-01T08:46:56.838Z,101841.80
2022-08-01T08:49:35.850Z,101844.58
2022-08-01T08:52:02.567Z,101841.77
2022-08-01T08:54:34.683Z,101842.27
2022-08-01T08:57:04.923Z,101841.52
2022-08-01T08:59:35.348Z,101843.19
2022-08-01T09:02:08.242Z,101842.63
2022-08-01T09:04:40.911Z,101837.89
2022-08-01T09:07:12.533Z,101844.03
2022-08-01T09:09:42.371Z,101839.83
2022-08-01T09:12:12.390Z,101842.38
2022-08-01T09:14:51.350Z,101829.52
2022-08-01T09:17:21.608Z,101829.52
2022-08-01T09:19:54.919Z,101848.23
2022-08-01T09:22:26.214Z,101858.28
2022-08-01T09:25:11.662Z,101856.03
2022-08-01T09:27:44.392Z,101856.19
2022-08-01T09:30:19.466Z,101860.42
2022-08-01T09:33:06.209Z,101863.85
2022-08-01T09:35:43.437Z,101868.90
2022-08-01T09:38:18.554Z,101873.07
2022-08-01T09:40:53.198Z,101871.98
2022-08-01T09:43:25.280Z,101877.56
2022-08-01T09:45:58.622Z,101884.28
2022-08-01T09:48:29.667Z,101884.28
2022-08-01T09:51:03.915Z,101885.59
2022-08-01T09:53:47.473Z,101886.77
2022-08-01T09:56:18.772Z,101868.88
2022-08-01T09:58:59.275Z,101868.88
2022-08-01T10:01:25.640Z,101886.77
2022-08-01T10:04:12.385Z,101881.16
2022-08-01T10:06:44.862Z,101886.78
2022-08-01T10:09:16.098Z,101893.67
2022-08-01T10:11:46.323Z,101892.20
2022-08-01T10:14:18.358Z,101899.70
2022-08-01T10:16:53.547Z,101900.26
2022-08-01T10:19:24.222Z,101902.17
2022-08-01T10:21:58.019Z,101912.81
2022-08-01T10:24:29.030Z,101914.48
2022-08-01T10:27:06.142Z,101925.89
2022-08-01T10:29:58.959Z,101929.70
2022-08-01T10:32:11.704Z,101927.78
2022-08-01T10:34:44.926Z,101922.98
2022-08-01T10:37:15.797Z,101920.25
2022-08-01T10:39:47.007Z,101932.13
2022-08-01T10:42:16.883Z,101932.63
2022-08-01T10:44:48.939Z,101927.14
2022-08-01T10:47:26.850Z,101932.59
2022-08-01T10:50:02.522Z,101930.33
2022-08-01T10:52:35.446Z,101927.05
2022-08-01T10:55:06.020Z,101920.42
2022-08-01T10:57:48.831Z,101923.89
2022-08-01T11:00:23.610Z,101917.89
2022-08-01T11:03:04.390Z,101920.69
2022-08-01T11:05:36.684Z,101915.19
2022-08-01T11:08:16.642Z,101918.98
2022-08-01T11:10:46.560Z,101914.13
2022-08-01T11:13:16.602Z,101909.24
2022-08-01T11:15:50.478Z,101914.48
2022-08-01T11:18:32.625Z,101915.56
2022-08-01T11:21:59.403Z,101908.59
2022-08-01T11:23:39.190Z,101907.88
2022-08-01T11:26:12.410Z,101897.60
2022-08-01T11:29:04.733Z,101909.70
2022-08-01T11:31:19.860Z,101913.56
2022-08-01T11:33:50.849Z,101908.84
2022-08-01T11:36:48.751Z,101911.61
2022-08-01T11:39:13.280Z,101919.19
2022-08-01T11:41:45.299Z,101920.01
2022-08-01T11:44:30.425Z,101923.39
2022-08-01T11:47:10.052Z,101926.70
2022-08-01T11:49:43.991Z,101929.67
2022-08-01T11:52:30.985Z,101936.16
2022-08-01T11:55:10.217Z,101929.72
2022-08-01T11:57:38.983Z,101927.22
2022-08-01T12:00:17.750Z,101928.50
2022-08-01T12:02:48.963Z,101922.20
2022-08-01T12:05:24.983Z,101924.68
2022-08-01T12:07:54.535Z,101931.25
2022-08-01T12:10:27.998Z,101931.25
2022-08-01T12:13:00.575Z,101930.73
2022-08-01T12:15:35.596Z,101935.72
2022-08-01T12:18:08.194Z,101933.88
2022-08-01T12:20:55.669Z,101932.23
2022-08-01T12:23:15.102Z,101918.59
2022-08-01T12:25:44.932Z,101918.59
2022-08-01T12:28:14.846Z,101936.19
2022-08-01T12:30:44.896Z,101937.60
2022-08-01T12:33:17.741Z,101935.00
2022-08-01T12:35:47.588Z,101937.95
2022-08-01T12:38:20.138Z,101929.80
2022-08-01T12:40:53.098Z,101934.23
2022-08-01T12:43:28.250Z,101930.91
2022-08-01T12:45:59.829Z,101927.53
2022-08-01T12:48:31.804Z,101925.80
2022-08-01T12:51:03.048Z,101921.92
2022-08-01T12:53:41.292Z,101921.92
2022-08-01T12:56:12.283Z,101923.11
2022-08-01T12:58:42.189Z,101905.53
2022-08-01T13:01:14.379Z,101905.53
2022-08-01T13:03:47.594Z,101923.38
2022-08-01T13:06:18.247Z,101916.31
2022-08-01T13:08:48.140Z,101917.75
2022-08-01T13:11:19.636Z,101912.58
2022-08-01T13:13:51.455Z,101919.53
2022-08-01T13:16:31.258Z,101920.06
2022-08-01T13:18:58.134Z,101917.02
2022-08-01T13:21:52.014Z,101916.20
2022-08-01T13:24:15.654Z,101917.33
2022-08-01T13:26:50.460Z,101915.08
2022-08-01T13:29:23.977Z,101886.73
2022-08-01T13:31:53.784Z,101886.73
2022-08-01T13:34:34.889Z,101907.59
2022-08-01T13:37:04.804Z,101906.48
2022-08-01T13:39:42.926Z,101902.13
2022-08-01T13:42:16.439Z,101906.22
2022-08-01T13:44:46.721Z,101901.27
2022-08-01T13:47:16.987Z,101893.51
2022-08-01T13:49:46.935Z,101873.11
2022-08-01T13:52:16.673Z,101873.11
2022-08-01T13:54:46.197Z,101872.95
2022-08-01T13:57:17.336Z,101872.95
2022-08-01T13:59:47.124Z,101900.53
2022-08-01T14:02:16.896Z,101889.05
2022-08-01T14:04:46.670Z,101888.47
2022-08-01T14:07:16.208Z,101873.80
2022-08-01T14:10:04.722Z,101873.80
2022-08-01T14:12:17.243Z,101889.05
2022-08-01T14:14:46.991Z,101887.25
2022-08-01T14:17:16.769Z,101886.66
2022-08-01T14:19:46.571Z,101885.77
2022-08-01T14:22:16.297Z,101880.78
2022-08-01T14:24:46.336Z,101881.19
2022-08-01T14:27:17.740Z,101887.83
2022-08-01T14:29:54.830Z,101876.36
2022-08-01T14:32:18.825Z,101880.77
2022-08-01T14:34:50.290Z,101879.64
2022-08-01T14:37:20.129Z,101885.41
2022-08-01T14:39:53.401Z,101877.61
2022-08-01T14:42:21.369Z,101877.31
2022-08-01T14:44:51.202Z,101878.75
2022-08-01T14:47:22.166Z,101876.34
2022-08-01T14:49:52.955Z,101870.14
2022-08-01T14:52:22.506Z,101877.13
2022-08-01T14:54:52.260Z,101877.84
2022-08-01T14:57:22.035Z,101877.44
2022-08-01T14:59:51.785Z,101882.27
2022-08-01T15:02:21.440Z,101873.80
2022-08-01T15:04:51.915Z,101878.83
2022-08-01T15:07:21.678Z,101873.17
2022-08-01T15:09:51.157Z,101870.63
2022-08-01T15:12:20.755Z,101870.94
2022-08-01T15:14:50.803Z,101861.88
2022-08-01T15:17:26.579Z,101846.23
2022-08-01T15:19:57.988Z,101863.77
2022-08-01T15:22:28.938Z,101863.77
2022-08-01T15:25:01.245Z,101870.55
2022-08-01T15:27:31.177Z,101872.01
2022-08-01T15:30:00.941Z,101866.29
2022-08-01T15:32:30.780Z,101862.45
2022-08-01T15:35:01.204Z,101866.56
2022-08-01T15:37:30.971Z,101866.56
2022-08-01T15:40:00.737Z,101862.97
2022-08-01T15:42:30.499Z,101861.64
2022-08-01T15:45:00.263Z,101869.55
2022-08-01T15:47:30.045Z,101874.91
2022-08-01T15:50:01.446Z,101875.69
2022-08-01T15:52:31.922Z,101878.81
2022-08-01T15:55:02.393Z,101879.06
2022-08-01T15:57:32.163Z,101881.25
2022-08-01T16:00:01.931Z,101884.00
2022-08-01T16:02:33.150Z,101881.52
2022-08-01T16:05:02.931Z,101879.08
2022-08-01T16:07:32.752Z,101879.84
2022-08-01T16:10:02.299Z,101875.38
2022-08-01T16:12:32.055Z,101883.48
2022-08-01T16:15:01.840Z,101883.23
2022-08-01T16:17:31.604Z,101888.68
2022-08-01T16:20:01.696Z,101885.14
2022-08-01T16:22:31.458Z,101882.91
2022-08-01T16:25:01.215Z,101884.52
2022-08-01T16:27:31.478Z,101877.94
2022-08-01T16:30:01.242Z,101886.45
2022-08-01T16:32:42.786Z,101889.62
2022-08-01T16:35:02.866Z,101891.34
2022-08-01T16:37:32.806Z,101882.45
2022-08-01T16:40:02.869Z,101880.95
2022-08-01T16:42:32.626Z,101881.34
2022-08-01T16:45:03.969Z,101883.22
2022-08-01T16:47:34.355Z,101879.42
2022-08-01T16:50:06.587Z,101873.16
2022-08-01T16:52:41.664Z,101872.14
2022-08-01T16:55:09.055Z,101875.65
2022-08-01T16:57:39.068Z,101873.86
2022-08-01T17:00:21.376Z,101874.63
2022-08-01T17:02:48.087Z,101872.66
2022-08-01T17:05:17.940Z,101875.61
2022-08-01T17:07:48.180Z,101880.30
2022-08-01T17:10:17.938Z,101881.66
2022-08-01T17:12:47.455Z,101874.63
2022-08-01T17:15:17.127Z,101873.65
2022-08-01T17:17:46.882Z,101876.20
2022-08-01T17:20:16.653Z,101886.45
2022-08-01T17:22:46.413Z,101889.48
2022-08-01T17:25:17.791Z,101888.37
2022-08-01T17:27:48.972Z,101890.97
2022-08-01T17:30:19.273Z,101894.86
2022-08-01T17:32:49.275Z,101901.20
2022-08-01T17:35:19.275Z,101901.20
2022-08-01T17:37:49.101Z,101899.24
2022-08-01T17:40:39.204Z,101896.32
2022-08-01T17:42:50.317Z,101893.32
2022-08-01T17:45:28.241Z,101884.61
2022-08-01T17:47:51.599Z,101887.90
2022-08-01T17:50:21.443Z,101890.63
2022-08-01T17:52:51.201Z,101893.21
2022-08-01T17:55:53.285Z,101949.08
2022-08-01T17:57:52.313Z,101875.83
2022-08-01T18:00:21.779Z,101891.00
2022-08-01T18:02:51.616Z,101880.64
2022-08-01T18:05:21.227Z,101878.14
2022-08-01T18:08:02.004Z,101878.14
2022-08-01T18:10:25.686Z,101890.63
2022-08-01T18:12:55.683Z,101890.63
2022-08-01T18:15:26.967Z,101905.76
2022-08-01T18:17:57.864Z,101910.22
2022-08-01T18:20:27.618Z,101907.43
2022-08-01T18:22:58.200Z,101884.53
2022-08-01T18:25:30.296Z,101884.53
2022-08-01T18:28:29.909Z,101888.47
2022-08-01T18:30:31.776Z,101888.47
2022-08-01T18:33:01.537Z,101908.66
2022-08-01T18:35:51.600Z,101910.83
2022-08-01T18:38:02.762Z,101916.34
2022-08-01T18:40:34.258Z,101915.52
2022-08-01T18:43:04.049Z,101919.13
2022-08-01T18:45:37.416Z,101923.31
2022-08-01T18:48:08.213Z,101914.56
2022-08-01T18:50:38.303Z,101918.17
2022-08-01T18:53:08.928Z,101918.09
2022-08-01T18:55:39.075Z,101915.36
2022-08-01T18:58:10.974Z,101918.59
2022-08-01T19:00:40.810Z,101924.55
2022-08-01T19:03:10.656Z,101924.66
2022-08-01T19:05:40.344Z,101929.45
2022-08-01T19:08:11.553Z,101918.73
2022-08-01T19:10:42.142Z,101922.37
2022-08-01T19:13:11.913Z,101921.11
2022-08-01T19:15:41.670Z,101927.81
2022-08-01T19:18:12.288Z,101930.52
2022-08-01T19:20:43.761Z,101928.84
2022-08-01T19:23:31.700Z,101932.55
2022-08-01T19:26:04.497Z,101924.86
2022-08-01T19:28:38.248Z,101924.86
2022-08-01T19:31:09.248Z,101941.76
2022-08-01T19:33:40.432Z,101944.02
2022-08-01T19:36:17.557Z,101949.43
2022-08-01T19:38:47.674Z,101953.89
2022-08-01T19:41:19.557Z,101953.36
2022-08-01T19:43:49.240Z,101943.33
2022-08-01T19:46:18.924Z,101943.33
2022-08-01T19:48:53.684Z,101971.52
2022-08-01T19:51:33.369Z,101975.33
2022-08-01T19:53:56.576Z,101971.17
2022-08-01T19:56:30.450Z,101972.97
2022-08-01T19:59:01.611Z,101976.11
2022-08-01T20:01:32.193Z,101970.52
2022-08-01T20:04:06.710Z,101969.45
2022-08-01T20:06:36.564Z,101979.80
2022-08-01T20:09:06.863Z,101983.88
2022-08-01T20:11:37.271Z,101982.67
2022-08-01T20:14:07.527Z,101979.02
2022-08-01T20:16:38.304Z,101975.39
2022-08-01T20:19:08.153Z,101966.28
2022-08-01T20:21:38.774Z,101980.33
2022-08-01T20:24:13.425Z,101977.77
2022-08-01T20:26:46.802Z,101983.84
2022-08-01T20:29:21.059Z,101977.17
2022-08-01T20:31:51.346Z,101981.45
2022-08-01T20:34:24.146Z,101979.77
2022-08-01T20:36:56.512Z,101978.38
2022-08-01T20:39:26.597Z,101981.12
2022-08-01T20:41:59.970Z,101973.26
2022-08-01T20:44:31.333Z,101976.93
2022-08-01T20:47:01.634Z,101972.34
2022-08-01T20:49:32.921Z,101973.78
2022-08-01T20:52:11.725Z,101969.33
2022-08-01T20:54:34.142Z,101974.72
2022-08-01T20:57:09.839Z,101974.23
2022-08-01T20:59:56.564Z,101971.06
2022-08-01T21:02:46.105Z,101975.95
2022-08-01T21:05:18.642Z,101981.89
2022-08-01T21:07:51.189Z,101983.17
2022-08-01T21:10:24.713Z,101976.55
2022-08-01T21:13:10.150Z,101981.49
2022-08-01T21:16:22.726Z,101980.69
2022-08-01T21:18:26.188Z,101979.08
2022-08-01T21:21:02.358Z,101982.09
2022-08-01T21:23:49.887Z,101984.19
2022-08-01T21:26:21.744Z,101980.41
2022-08-01T21:28:54.737Z,101985.20
2022-08-01T21:31:24.447Z,101979.91
2022-08-01T21:34:03.253Z,101976.27
2022-08-01T21:36:29.202Z,101967.55
2022-08-01T21:39:00.048Z,101967.55
2022-08-01T21:42:03.430Z,101980.11
2022-08-01T21:44:07.304Z,101985.95
2022-08-01T21:46:37.207Z,101984.54
2022-08-01T21:49:07.878Z,101982.61
2022-08-01T21:51:43.429Z,101969.86
2022-08-01T21:54:16.969Z,101969.86
2022-08-01T21:57:04.524Z,101991.53
2022-08-01T21:59:46.985Z,101994.05
2022-08-01T22:02:22.737Z,101988.60
2022-08-01T22:05:09.984Z,101984.14
2022-08-01T22:07:50.616Z,101982.17
2022-08-01T22:10:21.612Z,101974.25
2022-08-01T22:12:51.628Z,101983.53
2022-08-01T22:15:23.725Z,101977.02
2022-08-01T22:17:53.963Z,101982.97
2022-08-01T22:20:25.571Z,101980.69
2022-08-01T22:22:56.573Z,101976.77
2022-08-01T22:25:28.010Z,101979.36
2022-08-01T22:28:05.466Z,101979.44
2022-08-01T22:30:30.229Z,101984.32
2022-08-01T22:33:15.350Z,101983.09
2022-08-01T22:35:32.753Z,101990.73
2022-08-01T22:38:02.451Z,101987.59
2022-08-01T22:40:34.893Z,101974.30
2022-08-01T22:43:07.807Z,101979.41
2022-08-01T22:46:01.313Z,101981.32
2022-08-01T22:48:53.082Z,101980.95
2022-08-01T22:51:55.387Z,101977.95
2022-08-01T22:54:31.450Z,101971.17
2022-08-01T22:57:07.649Z,101975.03
2022-08-01T22:59:51.337Z,101961.79
2022-08-01T23:02:21.625Z,101961.79
2022-08-01T23:04:53.282Z,101962.25
2022-08-01T23:07:29.379Z,101956.31
2022-08-01T23:09:59.707Z,101961.86
2022-08-01T23:12:30.969Z,101965.45
2022-08-01T23:15:02.584Z,101965.73
2022-08-01T23:17:33.456Z,101956.20
2022-08-01T23:20:06.528Z,101956.20
2022-08-01T23:22:37.932Z,101969.98
2022-08-01T23:25:10.382Z,101968.84
2022-08-01T23:27:54.229Z,101965.24
2022-08-01T23:30:17.420Z,101968.49
2022-08-01T23:32:47.197Z,101965.20
2022-08-01T23:35:16.674Z,101958.30
2022-08-01T23:37:46.668Z,101954.97
2022-08-01T23:40:16.814Z,101951.94
2022-08-01T23:42:46.712Z,101952.94
2022-08-01T23:45:16.812Z,101947.91
2022-08-01T23:47:46.571Z,101950.17
2022-08-01T23:50:17.393Z,101951.30
2022-08-01T23:52:49.696Z,101939.91
2022-08-01T23:55:25.111Z,101938.39
2022-08-01T23:57:52.582Z,101940.44
